aviador You're here:

KLPR Decoded Metar

LORAIN/ELYRIA in OH, USA
Report Time2017-06-25 18:53:00
UTC Time2017-06-25 19:12:37
Flight Rules vfr VFR
Wind300° at 12 Gusting to 23 kt
W.Decomp.*RWY 25: 7.1 kt HW 9.7 kt RCW
W.Rank300° ranks 28
Current wind is above 300° avg. (8.8)
Visibility9999 m
Phenomena:N/A
Clouds:Few 070 Hf
Expected CloudBase > 6,000 ft AGL from Temp-Dew spread
CeilingNone
Temp21°C (ISA +8)
Dew Point06°C (38% RH)
AAT15.8°C
QNH1018 hPa
Density Alt1,637 ft
Elevation791 ft
Report Wrong Elevation
Raw Report
KLPR 251853Z AUTO 30012G23KT 10SM FEW070 21/06 A3005 RMK AO2 PK
WND 27028/1805 SLP173 T02110061=

Extra information for KLPR:More info

Metar Taf Metar & Taf Last 4 Metars F.Rules Stats Wind Profile Meteogram Temp Stats Airport Information Weather charts Add Link Nearby VenuesMetar ALERT Operation Metar Decoded Social comments

AIRNAV info for KLPR